Time;durP1;ratioP1;P1;durP2;ratioP2;P2;SDS_P1;SDS_P2;PMS_P1;PMS_P2;Temp;Humidity;BMP_temperature;BMP_pressure;BME280_temperature;BME280_humidity;BME280_pressure;Samples;Min_cycle;Max_cycle;Signal;HPM_P1;HPM_P2
2022/03/21 00:01:06;;;;;;;13.57;12.47;;;7.00;65.40;;;;;;5026930;28;21251;-78
2022/03/21 00:03:34;;;;;;;14.73;13.50;;;6.90;65.40;;;;;;5026784;28;20645;-78
2022/03/21 00:06:01;;;;;;;13.73;12.33;;;6.70;65.00;;;;;;5031122;28;20632;-79
2022/03/21 00:08:29;;;;;;;14.97;13.70;;;6.90;65.40;;;;;;5032146;28;20633;-78
2022/03/21 00:10:58;;;;;;;14.13;12.93;;;6.90;65.90;;;;;;5028657;28;21232;-79
2022/03/21 00:13:26;;;;;;;14.70;13.43;;;6.80;66.50;;;;;;5028307;28;20641;-80
2022/03/21 00:15:55;;;;;;;14.47;13.27;;;6.90;67.60;;;;;;5029536;28;20637;-80
2022/03/21 00:18:23;;;;;;;14.90;13.50;;;6.30;66.70;;;;;;5028857;28;20627;-80
2022/03/21 00:20:53;;;;;;;14.43;12.90;;;6.70;66.70;;;;;;5030536;28;21253;-81
2022/03/21 00:23:20;;;;;;;14.50;13.30;;;6.60;67.70;;;;;;5029443;28;20641;-80
2022/03/21 00:25:47;;;;;;;14.90;13.70;;;6.80;68.90;;;;;;5029635;28;20617;-81
2022/03/21 00:28:14;;;;;;;13.87;12.67;;;6.50;68.20;;;;;;5030101;28;20699;-80
2022/03/21 00:30:43;;;;;;;13.60;12.50;;;6.50;67.30;;;;;;5028929;28;20724;-80
2022/03/21 00:33:10;;;;;;;14.57;13.43;;;6.60;67.80;;;;;;5029221;28;20654;-80
2022/03/21 00:35:37;;;;;;;14.53;13.40;;;6.70;69.10;;;;;;5029999;28;21232;-80
2022/03/21 00:38:06;;;;;;;14.97;13.67;;;6.00;69.80;;;;;;5029964;28;20631;-80
2022/03/21 00:40:33;;;;;;;13.90;12.70;;;6.50;70.00;;;;;;5038084;28;20690;-80
2022/03/21 00:43:01;;;;;;;14.23;13.07;;;6.00;70.90;;;;;;5027888;28;20729;-79
2022/03/21 00:45:28;;;;;;;15.47;14.17;;;6.30;72.90;;;;;;5029233;28;20725;-79
2022/03/21 00:47:55;;;;;;;14.47;13.20;;;6.40;73.60;;;;;;5026937;28;20639;-79
2022/03/21 00:50:24;;;;;;;14.70;13.40;;;6.40;74.50;;;;;;5031547;28;21040;-80
2022/03/21 00:52:53;;;;;;;14.87;13.57;;;6.30;76.00;;;;;;5029685;28;20663;-80
2022/03/21 00:55:24;;;;;;;15.20;14.00;;;6.20;75.20;;;;;;5029329;28;20627;-79
2022/03/21 00:57:51;;;;;;;14.67;13.33;;;6.30;75.00;;;;;;5028461;28;21371;-80
2022/03/21 01:00:21;;;;;;;15.23;13.90;;;6.00;76.80;;;;;;5029942;28;20652;-79
2022/03/21 01:02:48;;;;;;;16.30;15.00;;;6.00;78.00;;;;;;5029406;28;20665;-80
2022/03/21 01:05:15;;;;;;;14.80;13.70;;;6.00;79.60;;;;;;5029994;28;20623;-80
2022/03/21 01:07:42;;;;;;;16.27;14.80;;;6.30;79.30;;;;;;5027483;28;21212;-80
2022/03/21 01:10:12;;;;;;;15.83;14.53;;;5.60;79.70;;;;;;5029120;28;20651;-80
2022/03/21 01:12:40;;;;;;;14.60;13.30;;;5.60;78.40;;;;;;5029290;28;20627;-80
2022/03/21 01:15:08;;;;;;;14.67;13.50;;;6.00;81.30;;;;;;5024069;28;20663;-79
2022/03/21 01:17:35;;;;;;;15.97;14.57;;;5.80;81.40;;;;;;5026756;28;20623;-80
2022/03/21 01:20:02;;;;;;;15.30;14.00;;;5.50;82.70;;;;;;5029646;28;21000;-80
2022/03/21 01:22:29;;;;;;;14.43;13.23;;;6.00;82.60;;;;;;5028707;28;21007;-80
2022/03/21 01:24:55;;;;;;;14.40;13.10;;;5.50;82.30;;;;;;5025852;28;20636;-80
2022/03/21 01:27:22;;;;;;;14.47;13.27;;;5.80;85.20;;;;;;5028318;28;20627;-80
2022/03/21 01:29:50;;;;;;;14.40;13.20;;;5.70;85.90;;;;;;5029806;28;20666;-78
2022/03/21 01:32:17;;;;;;;14.20;12.90;;;5.90;84.20;;;;;;5030291;28;21564;-78
2022/03/21 01:34:44;;;;;;;14.83;13.53;;;5.30;81.60;;;;;;5039446;28;20658;-80
2022/03/21 01:37:11;;;;;;;16.60;15.00;;;5.90;84.20;;;;;;5029838;28;20634;-79
2022/03/21 01:39:37;;;;;;;14.47;13.30;;;5.90;87.00;;;;;;5030033;28;20671;-80
2022/03/21 01:42:05;;;;;;;15.13;13.77;;;5.60;86.50;;;;;;5028971;28;20635;-81
2022/03/21 01:44:32;;;;;;;15.20;14.00;;;5.80;88.10;;;;;;5028608;28;20619;-80
2022/03/21 01:47:01;;;;;;;15.33;13.93;;;5.50;89.10;;;;;;5029376;28;20631;-80
2022/03/21 01:49:28;;;;;;;14.23;13.13;;;5.30;87.20;;;;;;5028757;28;20617;-79
2022/03/21 01:51:55;;;;;;;15.53;14.23;;;5.50;87.40;;;;;;5025176;28;20632;-79
2022/03/21 01:57:08;;;;;;;14.73;13.40;;;5.60;90.00;;;;;;5030125;28;20610;-79
2022/03/21 01:59:36;;;;;;;14.33;13.10;;;5.60;89.50;;;;;;5028380;28;20988;-79
2022/03/21 02:02:06;;;;;;;14.40;13.00;;;5.50;86.60;;;;;;5028594;28;20995;-78
2022/03/21 02:04:33;;;;;;;13.67;12.50;;;5.60;87.60;;;;;;5028655;28;21016;-79
2022/03/21 02:07:01;;;;;;;14.80;13.70;;;5.40;88.50;;;;;;5026900;28;20634;-79
2022/03/21 02:09:29;;;;;;;13.27;12.27;;;5.50;89.10;;;;;;5029933;28;20661;-78
2022/03/21 02:11:55;;;;;;;15.10;13.87;;;5.00;87.80;;;;;;5029134;28;21041;-78
2022/03/21 02:14:23;;;;;;;13.07;11.97;;;5.10;87.10;;;;;;5030596;28;20670;-78
2022/03/21 02:16:50;;;;;;;15.50;14.13;;;5.50;88.50;;;;;;5029525;28;20669;-78
2022/03/21 02:19:25;;;;;;;14.77;13.50;;;5.00;88.30;;;;;;5027674;28;20622;-78
2022/03/21 02:22:01;;;;;;;14.23;13.13;;;5.60;90.20;;;;;;5031685;28;20634;-80
2022/03/21 02:24:35;;;;;;;16.63;14.80;;;5.50;90.00;;;;;;5029407;28;20626;-78
2022/03/21 02:27:03;;;;;;;14.87;13.67;;;5.30;90.40;;;;;;5031701;28;20638;-78
2022/03/21 02:29:31;;;;;;;14.97;13.47;;;5.50;91.10;;;;;;5034928;28;20677;-79
2022/03/21 02:31:58;;;;;;;13.50;12.20;;;5.10;90.80;;;;;;5027864;28;20681;-78
2022/03/21 02:34:26;;;;;;;14.77;13.47;;;5.10;91.50;;;;;;5029716;28;20789;-79
2022/03/21 02:36:58;;;;;;;13.77;12.67;;;5.20;91.40;;;;;;5028405;28;21245;-79
2022/03/21 02:39:27;;;;;;;14.53;13.30;;;5.20;91.10;;;;;;5026642;28;20726;-79
2022/03/21 02:41:54;;;;;;;15.00;13.53;;;4.90;90.20;;;;;;5032606;28;20633;-78
2022/03/21 02:44:22;;;;;;;15.00;13.80;;;5.30;90.40;;;;;;5027068;28;20629;-80
2022/03/21 02:46:49;;;;;;;14.70;13.40;;;5.20;90.80;;;;;;5029762;28;21087;-78
2022/03/21 02:49:16;;;;;;;14.43;13.23;;;5.10;91.60;;;;;;5028109;28;20642;-81
2022/03/21 02:51:44;;;;;;;13.40;12.27;;;5.20;91.70;;;;;;5027857;28;20630;-80
2022/03/21 02:54:13;;;;;;;14.03;12.93;;;5.20;91.80;;;;;;5028353;28;20611;-79
2022/03/21 02:56:40;;;;;;;13.70;12.67;;;5.10;91.90;;;;;;5028642;28;20745;-79
2022/03/21 02:59:07;;;;;;;15.70;14.00;;;4.90;92.50;;;;;;5030488;28;20649;-80
2022/03/21 03:01:36;;;;;;;13.33;12.33;;;5.10;93.20;;;;;;5026449;28;20651;-79
2022/03/21 03:04:03;;;;;;;13.87;12.67;;;5.00;92.40;;;;;;5027874;28;21205;-79
2022/03/21 03:06:30;;;;;;;13.87;12.67;;;5.00;91.90;;;;;;5028526;28;20633;-79
2022/03/21 03:08:57;;;;;;;14.17;12.93;;;4.70;92.20;;;;;;5026074;28;20645;-80
2022/03/21 03:11:24;;;;;;;13.97;12.77;;;5.10;92.90;;;;;;5028273;28;20654;-80
2022/03/21 03:13:50;;;;;;;15.30;13.23;;;5.00;93.00;;;;;;5029503;28;20638;-80
2022/03/21 03:16:17;;;;;;;13.67;12.47;;;4.90;92.10;;;;;;5034213;28;20673;-80
2022/03/21 03:18:45;;;;;;;14.70;13.50;;;5.20;92.50;;;;;;5027559;28;20630;-81
2022/03/21 03:21:15;;;;;;;14.70;13.50;;;4.90;91.90;;;;;;5028994;28;20650;-81
2022/03/21 03:23:42;;;;;;;13.93;12.83;;;4.60;92.10;;;;;;5027304;28;20627;-80
2022/03/21 03:26:09;;;;;;;13.53;12.53;;;5.00;93.10;;;;;;5030280;28;20741;-80
2022/03/21 03:28:37;;;;;;;13.80;12.60;;;4.70;93.00;;;;;;5026867;28;20684;-81
2022/03/21 03:31:05;;;;;;;13.63;12.53;;;4.70;93.70;;;;;;5032684;28;20657;-79
2022/03/21 03:33:31;;;;;;;14.27;12.97;;;4.80;94.20;;;;;;5029694;28;20619;-79
2022/03/21 03:35:59;;;;;;;13.53;12.53;;;4.60;95.10;;;;;;5031139;28;21063;-79
2022/03/21 03:38:26;;;;;;;14.57;13.23;;;4.50;94.60;;;;;;5027479;28;20649;-79
2022/03/21 03:40:53;;;;;;;12.93;11.73;;;4.90;95.10;;;;;;5035545;28;20653;-79
2022/03/21 03:43:20;;;;;;;13.10;11.70;;;4.60;95.00;;;;;;5030125;28;20644;-80
2022/03/21 03:45:48;;;;;;;13.77;12.57;;;4.50;94.70;;;;;;5036218;28;21172;-79
2022/03/21 03:48:16;;;;;;;15.20;13.10;;;4.70;95.20;;;;;;5029847;28;20653;-80
2022/03/21 03:50:42;;;;;;;13.10;12.10;;;4.50;95.70;;;;;;5031552;28;20666;-80
2022/03/21 03:53:10;;;;;;;13.83;12.63;;;4.30;96.90;;;;;;5026876;28;20628;-80
2022/03/21 03:55:38;;;;;;;14.70;13.50;;;4.50;96.90;;;;;;5034692;28;20674;-80
2022/03/21 03:58:05;;;;;;;14.87;13.57;;;4.60;97.40;;;;;;5030477;28;20720;-80
2022/03/21 04:00:31;;;;;;;14.30;13.20;;;4.40;98.20;;;;;;5032533;28;20665;-80
2022/03/21 04:05:42;;;;;;;14.47;13.37;;;4.30;98.10;;;;;;5030882;28;20599;-79
2022/03/21 04:08:10;;;;;;;14.37;13.17;;;4.20;98.20;;;;;;5030828;28;20652;-79
2022/03/21 04:10:37;;;;;;;15.20;14.00;;;4.20;97.50;;;;;;5028762;28;20708;-79
2022/03/21 04:13:04;;;;;;;13.77;12.47;;;4.00;99.70;;;;;;5030636;28;20609;-79
2022/03/21 04:15:31;;;;;;;14.23;12.93;;;4.30;99.70;;;;;;5031614;28;20692;-80
2022/03/21 04:18:01;;;;;;;14.73;13.50;;;4.30;99.90;;;;;;5029432;28;20664;-79
2022/03/21 04:20:29;;;;;;;13.97;12.87;;;4.20;99.90;;;;;;5030411;28;20692;-79
2022/03/21 04:22:55;;;;;;;15.40;14.07;;;4.20;99.90;;;;;;5026581;28;20638;-80
2022/03/21 04:25:24;;;;;;;14.57;13.27;;;4.20;99.90;;;;;;5029449;28;20627;-79
2022/03/21 04:27:51;;;;;;;14.37;13.23;;;3.90;99.90;;;;;;5029588;28;20634;-79
2022/03/21 04:30:18;;;;;;;15.90;14.30;;;4.10;99.90;;;;;;5028588;28;20666;-79
2022/03/21 04:32:45;;;;;;;15.40;14.10;;;4.20;99.90;;;;;;5030161;28;20641;-79
2022/03/21 04:35:13;;;;;;;15.63;14.33;;;4.10;99.90;;;;;;5029904;28;20673;-80
2022/03/21 04:37:41;;;;;;;14.50;13.40;;;4.10;99.90;;;;;;5030178;28;20641;-79
2022/03/21 04:40:10;;;;;;;16.73;15.23;;;3.90;99.90;;;;;;5029654;28;20660;-79
2022/03/21 04:42:40;;;;;;;16.33;15.03;;;4.00;99.90;;;;;;5029113;28;20622;-79
2022/03/21 04:45:08;;;;;;;14.90;13.60;;;4.00;99.90;;;;;;5026695;28;21041;-79
2022/03/21 04:47:35;;;;;;;15.63;14.40;;;4.10;99.90;;;;;;5026910;28;21238;-79
2022/03/21 04:50:02;;;;;;;16.10;14.80;;;3.70;99.90;;;;;;5028840;28;20748;-79
2022/03/21 04:52:29;;;;;;;17.03;15.60;;;3.90;99.90;;;;;;5029011;28;21198;-79
2022/03/21 04:54:55;;;;;;;14.97;13.60;;;3.70;99.90;;;;;;5028387;28;21520;-79
2022/03/21 04:57:22;;;;;;;15.70;14.40;;;3.80;99.90;;;;;;5029038;28;20670;-79
2022/03/21 04:59:52;;;;;;;15.00;13.73;;;3.90;99.90;;;;;;5029318;28;20696;-79
2022/03/21 05:02:19;;;;;;;15.50;14.10;;;3.80;99.90;;;;;;5026272;28;20704;-80
2022/03/21 05:04:46;;;;;;;15.83;14.50;;;3.40;99.90;;;;;;5030733;28;20638;-80
2022/03/21 05:07:14;;;;;;;16.90;15.50;;;4.00;99.90;;;;;;5030269;28;20995;-79
2022/03/21 05:09:41;;;;;;;16.60;15.30;;;3.70;99.90;;;;;;5029382;28;20719;-80
2022/03/21 05:12:09;;;;;;;17.40;15.73;;;3.80;99.90;;;;;;5030433;28;20642;-80
2022/03/21 05:14:35;;;;;;;16.87;15.37;;;4.00;99.90;;;;;;5025843;28;20628;-80
2022/03/21 05:17:05;;;;;;;16.03;14.73;;;3.70;99.90;;;;;;5028362;28;21023;-79
2022/03/21 05:19:35;;;;;;;17.03;15.43;;;3.80;99.90;;;;;;5028192;28;20658;-79
2022/03/21 05:22:02;;;;;;;16.20;14.80;;;3.70;99.90;;;;;;5030130;28;21188;-79
2022/03/21 05:32:43;;;;;;;14.77;13.60;;;3.80;99.90;;;;;;5027239;28;20669;-79
2022/03/21 05:37:55;;;;;;;15.50;13.87;;;3.80;99.90;;;;;;5032677;28;20612;-81
2022/03/21 05:40:35;;;;;;;16.23;14.83;;;3.70;99.90;;;;;;5030498;28;20630;-80
2022/03/21 05:43:03;;;;;;;16.73;15.27;;;3.80;99.90;;;;;;5024554;28;21239;-80
2022/03/21 05:45:29;;;;;;;16.00;14.60;;;3.70;99.90;;;;;;5033546;28;20664;-79
2022/03/21 05:50:43;;;;;;;15.00;13.70;;;3.50;99.90;;;;;;5028345;28;20654;-79
2022/03/21 05:53:09;;;;;;;15.27;13.77;;;3.60;99.90;;;;;;5030727;28;20649;-79
2022/03/21 05:55:37;;;;;;;13.90;12.67;;;3.80;99.90;;;;;;5028064;28;20622;-79
2022/03/21 05:58:04;;;;;;;17.50;15.47;;;3.70;99.90;;;;;;5031103;28;20994;-78
2022/03/21 06:00:34;;;;;;;18.83;13.90;;;3.50;99.90;;;;;;5025800;28;20629;-81
2022/03/21 06:03:02;;;;;;;15.67;14.00;;;3.50;99.90;;;;;;5030393;28;20718;-80
2022/03/21 06:05:29;;;;;;;14.97;13.60;;;3.60;99.90;;;;;;5029358;28;20751;-80
2022/03/21 06:07:57;;;;;;;16.00;14.43;;;3.60;99.90;;;;;;5024751;28;20643;-81
2022/03/21 06:10:23;;;;;;;14.93;13.73;;;3.90;99.90;;;;;;5032692;28;21183;-81
2022/03/21 06:12:50;;;;;;;15.47;13.90;;;3.70;99.90;;;;;;5027908;28;20664;-82
2022/03/21 06:15:17;;;;;;;15.50;14.10;;;4.00;99.90;;;;;;5025993;28;20664;-79
2022/03/21 06:17:45;;;;;;;14.50;13.23;;;3.80;99.90;;;;;;5030146;28;20626;-80
2022/03/21 06:20:15;;;;;;;16.80;15.27;;;4.00;99.90;;;;;;5031706;28;20648;-80
2022/03/21 06:22:42;;;;;;;14.90;13.63;;;4.20;99.80;;;;;;5031324;28;20649;-80
2022/03/21 06:25:11;;;;;;;16.50;15.13;;;4.00;99.10;;;;;;5031341;28;20629;-80
2022/03/21 06:27:38;;;;;;;15.33;14.03;;;4.20;99.20;;;;;;5029689;28;20652;-79
2022/03/21 06:30:07;;;;;;;15.70;14.40;;;4.00;98.10;;;;;;5030482;28;20630;-80
2022/03/21 06:32:34;;;;;;;15.93;14.60;;;4.70;98.10;;;;;;5028244;28;20638;-80
2022/03/21 06:35:01;;;;;;;15.80;14.40;;;4.50;97.50;;;;;;5027648;28;20635;-79
2022/03/21 06:37:30;;;;;;;15.50;14.10;;;4.50;97.00;;;;;;5029538;28;20636;-82
2022/03/21 06:39:56;;;;;;;19.03;14.83;;;4.70;96.90;;;;;;5033891;28;21224;-80
2022/03/21 06:42:23;;;;;;;18.40;16.40;;;4.90;95.90;;;;;;5031287;28;20631;-80
2022/03/21 06:44:52;;;;;;;16.67;15.13;;;5.00;96.00;;;;;;5026545;28;20642;-80
2022/03/21 06:47:20;;;;;;;17.67;16.07;;;5.00;96.20;;;;;;5027298;28;20678;-79
2022/03/21 06:49:47;;;;;;;15.23;13.80;;;5.30;96.20;;;;;;5027864;28;20658;-80
2022/03/21 06:52:18;;;;;;;14.30;13.10;;;4.70;94.20;;;;;;5027840;28;20638;-80
2022/03/21 06:54:48;;;;;;;15.40;14.00;;;5.20;93.30;;;;;;5029135;28;20627;-80
2022/03/21 06:57:17;;;;;;;15.10;13.60;;;5.20;93.30;;;;;;5025987;28;20655;-80
2022/03/21 06:59:45;;;;;;;15.37;13.83;;;5.30;93.10;;;;;;5023338;28;20647;-80
2022/03/21 07:02:12;;;;;;;16.00;14.37;;;5.60;92.90;;;;;;5025266;28;20701;-81
2022/03/21 07:04:38;;;;;;;16.40;14.63;;;5.80;93.00;;;;;;5026027;28;20622;-80
2022/03/21 07:07:05;;;;;;;16.53;14.77;;;6.00;92.90;;;;;;5027865;28;20666;-80
2022/03/21 07:09:32;;;;;;;16.03;13.57;;;6.00;92.50;;;;;;5023631;28;20650;-81
2022/03/21 07:12:00;;;;;;;14.57;13.17;;;5.90;92.00;;;;;;5022069;28;20637;-81
2022/03/21 07:14:27;;;;;;;15.33;13.87;;;5.80;91.50;;;;;;5028801;28;20633;-81
2022/03/21 07:16:54;;;;;;;16.00;14.70;;;6.10;90.50;;;;;;5030328;28;20658;-81
2022/03/21 07:19:21;;;;;;;14.50;13.30;;;6.30;90.20;;;;;;5030499;28;20664;-81
2022/03/21 07:21:48;;;;;;;14.53;13.23;;;6.10;89.90;;;;;;5028693;28;21283;-80
2022/03/21 07:24:15;;;;;;;15.37;13.90;;;6.60;89.10;;;;;;5031488;28;20626;-81
2022/03/21 07:26:42;;;;;;;15.07;13.67;;;6.70;88.60;;;;;;5030063;28;20655;-81
2022/03/21 07:29:12;;;;;;;13.43;12.33;;;6.90;87.50;;;;;;5033698;28;21073;-81
2022/03/21 07:31:39;;;;;;;14.87;13.40;;;6.80;87.10;;;;;;5033164;28;20630;-81
2022/03/21 07:34:08;;;;;;;13.33;12.30;;;6.90;86.40;;;;;;5033046;28;20625;-81
2022/03/21 07:36:35;;;;;;;13.00;11.80;;;7.20;86.40;;;;;;5030171;28;20618;-81
2022/03/21 07:39:04;;;;;;;13.43;12.33;;;7.00;85.60;;;;;;5031629;28;20662;-81
2022/03/21 07:41:31;;;;;;;13.43;12.33;;;7.30;84.70;;;;;;5032898;28;20624;-81
2022/03/21 07:43:58;;;;;;;14.13;12.93;;;6.70;83.90;;;;;;5033045;28;20641;-80
2022/03/21 07:49:12;;;;;;;13.80;12.47;;;7.40;83.80;;;;;;5031165;28;21208;-81
2022/03/21 07:51:43;;;;;;;14.40;13.20;;;7.40;83.00;;;;;;5030371;28;20637;-81
2022/03/21 07:54:11;;;;;;;16.60;13.87;;;7.40;82.40;;;;;;5030347;28;20619;-81
2022/03/21 07:56:38;;;;;;;14.93;13.57;;;7.40;82.20;;;;;;5029534;28;21043;-81
2022/03/21 07:59:05;;;;;;;13.53;12.33;;;8.00;82.40;;;;;;5029227;28;21215;-81
2022/03/21 08:01:34;;;;;;;14.17;12.57;;;7.50;81.70;;;;;;5029831;28;21172;-81
2022/03/21 08:04:03;;;;;;;14.77;13.33;;;7.80;80.40;;;;;;5029648;28;20630;-81
2022/03/21 08:06:30;;;;;;;14.30;13.00;;;7.80;80.70;;;;;;5030169;28;20690;-81
2022/03/21 08:08:57;;;;;;;15.03;13.70;;;8.20;80.60;;;;;;5029852;28;20637;-80
2022/03/21 08:11:24;;;;;;;15.20;13.70;;;8.40;78.90;;;;;;5034239;28;21059;-80
2022/03/21 08:13:51;;;;;;;14.73;13.33;;;8.30;79.20;;;;;;5029098;28;20633;-80
2022/03/21 08:16:20;;;;;;;14.10;12.90;;;8.10;78.80;;;;;;5025244;28;20617;-80
2022/03/21 08:18:52;;;;;;;14.87;13.57;;;8.40;78.70;;;;;;5025376;28;20636;-80
2022/03/21 08:21:20;;;;;;;14.67;13.40;;;8.40;78.10;;;;;;5026835;28;20626;-80
2022/03/21 08:23:49;;;;;;;21.03;13.30;;;8.90;77.90;;;;;;5029009;28;20740;-80
2022/03/21 08:26:17;;;;;;;14.70;13.27;;;8.50;77.20;;;;;;5030406;28;21272;-80
2022/03/21 08:28:45;;;;;;;16.10;14.37;;;8.80;77.10;;;;;;5028854;28;20630;-80
2022/03/21 08:31:13;;;;;;;14.43;12.87;;;8.90;77.20;;;;;;5031553;28;21347;-80
2022/03/21 08:33:40;;;;;;;13.40;12.30;;;9.00;77.50;;;;;;5028765;28;20626;-80
2022/03/21 08:36:09;;;;;;;16.13;14.67;;;9.10;76.10;;;;;;5030866;28;20630;-81
2022/03/21 08:38:35;;;;;;;13.30;11.97;;;9.30;75.20;;;;;;5026667;28;20626;-81
2022/03/21 08:41:02;;;;;;;14.67;13.03;;;9.70;75.30;;;;;;5029840;28;20650;-81
2022/03/21 08:43:29;;;;;;;14.30;12.60;;;9.40;74.30;;;;;;5028620;28;20712;-80
2022/03/21 08:45:56;;;;;;;14.17;12.70;;;9.70;73.60;;;;;;5029435;28;20642;-82
2022/03/21 08:49:23;;;;;;;14.53;13.20;;;10.00;71.40;;;;;;5029039;28;20681;-82
2022/03/21 08:51:11;;;;;;;14.40;12.80;;;10.10;70.80;;;;;;5025327;28;21155;-82
2022/03/21 08:53:38;;;;;;;16.80;15.20;;;9.90;72.00;;;;;;5026555;28;20638;-81
2022/03/21 08:56:05;;;;;;;36.50;31.50;;;10.30;70.70;;;;;;5030570;28;20721;-81
2022/03/21 08:58:32;;;;;;;20.67;18.47;;;10.40;71.00;;;;;;5029079;28;20623;-82
2022/03/21 09:00:59;;;;;;;15.03;13.63;;;10.50;70.40;;;;;;5029695;28;20728;-82
2022/03/21 09:03:26;;;;;;;15.50;14.00;;;10.60;70.60;;;;;;5028788;28;20635;-82
2022/03/21 09:05:53;;;;;;;16.60;14.70;;;10.20;70.20;;;;;;5029536;28;21043;-82
2022/03/21 09:08:21;;;;;;;16.07;14.20;;;10.40;70.00;;;;;;5030576;28;20670;-82
2022/03/21 09:10:48;;;;;;;13.60;12.20;;;10.80;70.10;;;;;;5029268;28;20896;-81
2022/03/21 09:13:15;;;;;;;15.53;13.50;;;10.80;69.40;;;;;;5028969;28;20639;-81
2022/03/21 09:15:43;;;;;;;17.00;12.30;;;10.90;69.50;;;;;;5028652;28;21310;-81
2022/03/21 09:18:10;;;;;;;18.10;15.47;;;10.80;69.20;;;;;;5023692;28;20634;-81
2022/03/21 09:20:37;;;;;;;14.90;13.37;;;11.10;68.80;;;;;;5026468;28;20657;-81
2022/03/21 09:23:04;;;;;;;15.83;14.33;;;11.30;69.10;;;;;;5029247;28;20640;-81
2022/03/21 09:25:33;;;;;;;16.20;13.33;;;11.10;67.40;;;;;;5027773;28;20622;-81
2022/03/21 09:27:59;;;;;;;14.67;13.17;;;11.50;67.70;;;;;;5028667;28;20671;-81
2022/03/21 09:30:26;;;;;;;15.43;13.83;;;11.60;67.50;;;;;;5028892;28;20654;-81
2022/03/21 09:32:53;;;;;;;13.90;12.50;;;11.80;67.20;;;;;;5033577;28;20618;-81
2022/03/21 09:35:20;;;;;;;14.70;13.40;;;11.90;66.70;;;;;;5031133;28;20662;-81
2022/03/21 09:37:47;;;;;;;14.67;13.20;;;12.00;66.40;;;;;;5028723;28;20630;-81
2022/03/21 09:40:17;;;;;;;15.73;14.23;;;12.10;65.70;;;;;;5032568;28;20655;-82
2022/03/21 09:42:45;;;;;;;16.90;13.53;;;12.30;64.60;;;;;;5029875;28;20661;-82
2022/03/21 09:45:13;;;;;;;15.97;14.43;;;12.40;64.10;;;;;;5024661;28;21012;-81
2022/03/21 09:50:33;;;;;;;15.60;14.00;;;12.60;63.80;;;;;;5027459;28;20646;-81
2022/03/21 09:53:01;;;;;;;15.03;13.73;;;12.80;64.50;;;;;;5024578;28;20655;-81
2022/03/21 09:55:27;;;;;;;17.13;14.83;;;12.90;62.80;;;;;;5030429;28;20614;-81
2022/03/21 09:57:56;;;;;;;15.93;13.23;;;13.00;62.80;;;;;;5026321;28;20625;-82
2022/03/21 10:00:24;;;;;;;18.50;16.13;;;13.10;61.90;;;;;;5028144;28;21172;-81
2022/03/21 10:02:51;;;;;;;15.50;13.90;;;13.20;62.80;;;;;;5027432;28;20630;-80
2022/03/21 10:05:34;;;;;;;15.63;13.93;;;13.40;61.10;;;;;;5028241;28;20638;-81
2022/03/21 10:08:12;;;;;;;15.37;14.00;;;13.70;60.80;;;;;;5026479;28;20666;-81
2022/03/21 10:10:39;;;;;;;16.37;14.77;;;13.80;59.50;;;;;;5021046;28;20654;-81
2022/03/21 10:13:09;;;;;;;16.50;14.93;;;13.90;59.50;;;;;;5029626;28;20618;-81
2022/03/21 10:15:37;;;;;;;16.70;15.20;;;14.10;59.30;;;;;;5026423;28;20692;-81
2022/03/21 10:18:07;;;;;;;17.30;15.70;;;14.10;59.10;;;;;;5026015;28;20627;-81
2022/03/21 10:20:35;;;;;;;16.30;14.70;;;14.40;59.10;;;;;;5025822;28;20650;-81
2022/03/21 10:23:22;;;;;;;15.70;14.10;;;14.50;58.80;;;;;;5026498;28;20614;-81
2022/03/21 10:25:50;;;;;;;16.43;14.77;;;14.70;58.70;;;;;;5029089;28;20622;-81
2022/03/21 10:28:36;;;;;;;16.30;14.70;;;15.00;57.80;;;;;;5027263;28;20663;-80
2022/03/21 10:31:04;;;;;;;15.53;14.00;;;15.20;57.60;;;;;;5023315;28;21558;-80
2022/03/21 10:33:31;;;;;;;16.90;15.23;;;15.50;57.50;;;;;;5026089;28;20619;-81
2022/03/21 10:36:05;;;;;;;17.30;15.57;;;15.60;56.90;;;;;;5026984;28;20610;-81
2022/03/21 10:38:33;;;;;;;15.63;14.20;;;15.70;57.10;;;;;;5026862;28;21283;-81
2022/03/21 10:41:07;;;;;;;16.73;15.03;;;16.00;56.80;;;;;;5027751;28;20650;-81
2022/03/21 10:43:36;;;;;;;15.30;13.67;;;16.30;56.00;;;;;;5028822;28;20690;-80
2022/03/21 10:46:04;;;;;;;14.77;13.30;;;16.60;56.70;;;;;;5028485;28;20631;-81
2022/03/21 10:48:32;;;;;;;17.33;15.73;;;16.90;56.10;;;;;;5030006;28;20654;-80
2022/03/21 10:51:01;;;;;;;17.20;15.43;;;17.10;55.70;;;;;;5026773;28;20685;-81
2022/03/21 10:53:32;;;;;;;15.90;14.27;;;17.40;56.20;;;;;;5028341;28;20801;-83
2022/03/21 10:56:07;;;;;;;17.10;15.63;;;17.60;54.10;;;;;;5033341;28;20621;-82
2022/03/21 10:58:39;;;;;;;22.57;16.50;;;17.40;53.90;;;;;;5028117;28;21204;-82
2022/03/21 11:01:14;;;;;;;16.37;14.63;;;17.60;54.00;;;;;;5028133;28;20627;-82
2022/03/21 11:03:42;;;;;;;15.50;14.07;;;17.70;55.00;;;;;;5026523;28;20626;-82
2022/03/21 11:06:10;;;;;;;17.33;15.60;;;17.90;53.50;;;;;;5028371;28;20753;-81
2022/03/21 11:08:37;;;;;;;15.83;14.23;;;17.80;53.10;;;;;;5027512;28;20658;-81
2022/03/21 11:11:04;;;;;;;16.83;15.23;;;18.00;53.20;;;;;;5026441;28;20816;-81
2022/03/21 11:13:32;;;;;;;16.30;14.60;;;18.00;52.80;;;;;;5029055;28;20696;-81
2022/03/21 11:16:00;;;;;;;16.17;14.50;;;18.30;52.50;;;;;;5026491;28;20639;-81
2022/03/21 11:18:28;;;;;;;16.17;14.77;;;18.50;52.90;;;;;;5027091;28;20713;-81
2022/03/21 11:20:55;;;;;;;16.53;15.00;;;18.80;53.90;;;;;;5027825;28;21311;-81
2022/03/21 11:23:22;;;;;;;15.87;14.37;;;19.10;52.80;;;;;;5028309;28;21201;-81
2022/03/21 11:25:51;;;;;;;16.60;14.90;;;19.30;52.00;;;;;;5029393;28;20669;-81
2022/03/21 11:28:42;;;;;;;18.20;16.10;;;19.50;51.90;;;;;;5032530;28;20689;-81
2022/03/21 11:31:43;;;;;;;16.27;14.90;;;19.80;51.30;;;;;;5027959;28;20615;-82
2022/03/21 11:34:22;;;;;;;16.63;15.33;;;20.20;49.70;;;;;;4997023;28;20641;-82
2022/03/21 11:36:53;;;;;;;15.77;14.27;;;20.50;49.40;;;;;;5027533;28;20693;-82
2022/03/21 11:39:21;;;;;;;15.67;14.43;;;20.80;49.40;;;;;;5027908;28;20734;-82
2022/03/21 11:41:59;;;;;;;16.33;14.63;;;21.00;48.70;;;;;;5025676;28;20627;-83
2022/03/21 11:44:26;;;;;;;15.47;13.90;;;21.20;49.20;;;;;;5026851;28;20642;-82
2022/03/21 11:47:14;;;;;;;15.40;13.90;;;21.50;49.10;;;;;;5028936;28;20663;-82
2022/03/21 11:49:45;;;;;;;16.43;15.03;;;21.80;47.70;;;;;;5020559;28;20642;-82
2022/03/21 11:52:13;;;;;;;17.43;15.77;;;21.80;46.00;;;;;;5029630;28;20629;-82
2022/03/21 11:54:41;;;;;;;15.00;13.60;;;22.00;45.40;;;;;;5020752;28;21378;-82
2022/03/21 11:57:09;;;;;;;16.20;14.63;;;22.20;45.90;;;;;;5029246;28;20651;-83
2022/03/21 11:59:53;;;;;;;16.50;14.90;;;22.40;44.40;;;;;;5025826;28;20634;-82
2022/03/21 12:02:56;;;;;;;14.77;13.40;;;22.70;45.00;;;;;;5031408;28;20624;-83
2022/03/21 12:05:51;;;;;;;20.23;16.50;;;22.90;43.40;;;;;;5028692;28;21511;-82
2022/03/21 12:08:52;;;;;;;15.80;14.50;;;22.60;42.10;;;;;;5024015;28;21033;-82
2022/03/21 12:12:01;;;;;;;15.73;14.37;;;22.90;42.80;;;;;;5029660;28;20618;-83
2022/03/21 12:14:44;;;;;;;14.87;13.57;;;23.30;42.40;;;;;;5033792;28;20633;-83
2022/03/21 12:17:41;;;;;;;15.63;14.30;;;23.80;41.50;;;;;;5031666;28;20696;-83
2022/03/21 12:20:12;;;;;;;15.83;14.63;;;24.10;40.80;;;;;;5029757;28;20642;-82
2022/03/21 12:22:47;;;;;;;14.67;13.40;;;24.10;39.60;;;;;;5032090;28;20641;-81
2022/03/21 12:25:22;;;;;;;14.43;13.07;;;23.80;39.40;;;;;;5030969;28;20638;-82
2022/03/21 12:27:52;;;;;;;14.37;13.27;;;23.80;39.60;;;;;;5032560;28;20653;-82
2022/03/21 12:30:36;;;;;;;14.50;13.07;;;23.60;39.00;;;;;;5027749;28;20623;-82
2022/03/21 12:33:07;;;;;;;13.47;12.37;;;23.40;38.90;;;;;;5026435;28;21142;-82
2022/03/21 12:35:58;;;;;;;19.00;13.67;;;23.40;39.50;;;;;;5033240;28;20650;-82
2022/03/21 12:38:27;;;;;;;15.27;13.97;;;23.60;39.50;;;;;;5028470;28;20617;-82
2022/03/21 12:40:58;;;;;;;16.70;13.43;;;23.70;39.60;;;;;;5037175;28;21239;-82
2022/03/21 12:43:26;;;;;;;13.70;12.37;;;24.20;39.40;;;;;;5027739;28;21260;-81
2022/03/21 12:45:58;;;;;;;12.87;11.67;;;24.60;38.60;;;;;;5029103;28;20658;-80
2022/03/21 12:48:30;;;;;;;13.40;12.10;;;24.80;38.00;;;;;;5034116;28;20650;-81
2022/03/21 12:50:59;;;;;;;13.87;12.47;;;24.90;37.10;;;;;;5029427;28;21377;-81
2022/03/21 12:53:37;;;;;;;12.87;11.73;;;24.80;37.40;;;;;;5036007;28;20625;-81
2022/03/21 12:56:05;;;;;;;13.97;12.73;;;24.80;37.10;;;;;;5027059;28;21489;-81
2022/03/21 12:58:33;;;;;;;14.67;13.20;;;25.00;37.20;;;;;;5030396;28;20625;-82
2022/03/21 13:01:02;;;;;;;13.23;11.90;;;25.00;36.40;;;;;;5030975;28;20721;-81
2022/03/21 13:03:28;;;;;;;13.47;12.27;;;24.80;36.50;;;;;;5030554;28;20716;-82
2022/03/21 13:11:27;;;;;;;13.83;12.20;;;24.40;36.10;;;;;;5032819;28;20714;-82
2022/03/21 13:13:57;;;;;;;13.70;12.40;;;24.50;35.30;;;;;;5032335;28;20635;-82